Time;durP1;ratioP1;P1;durP2;ratioP2;P2;SDS_P1;SDS_P2;PMS_P1;PMS_P2;Temp;Humidity;BMP_temperature;BMP_pressure;BME280_temperature;BME280_humidity;BME280_pressure;Samples;Min_cycle;Max_cycle;Signal;HPM_P1;HPM_P2
2022/07/16 00:02:19;;;;;;;4.22;1.08;;;;;;;14.92;100.00;101833.44;5097347;28;20512;-87
2022/07/16 00:04:46;;;;;;;3.63;1.00;;;;;;;14.97;100.00;101849.97;5086199;28;20051;-86
2022/07/16 00:07:13;;;;;;;2.92;1.05;;;;;;;14.73;100.00;101843.84;5081025;28;20079;-86
2022/07/16 00:09:39;;;;;;;4.55;1.45;;;;;;;14.78;100.00;101863.00;5091563;28;20488;-86
2022/07/16 00:12:06;;;;;;;6.85;1.20;;;;;;;14.87;100.00;101858.28;5095636;28;20131;-86
2022/07/16 00:14:33;;;;;;;4.00;1.25;;;;;;;14.91;100.00;101846.69;5099178;28;20122;-86
2022/07/16 00:17:00;;;;;;;2.45;1.00;;;;;;;14.79;100.00;101845.41;5102765;28;20048;-86
2022/07/16 00:19:27;;;;;;;5.25;1.38;;;;;;;14.96;100.00;101848.25;5093470;28;20044;-86
2022/07/16 00:21:55;;;;;;;3.80;1.02;;;;;;;14.93;100.00;101836.97;5084289;28;20051;-86
2022/07/16 00:24:23;;;;;;;6.55;1.33;;;;;;;14.84;100.00;101832.03;5105893;28;20047;-86
2022/07/16 00:26:50;;;;;;;5.47;1.13;;;;;;;14.80;100.00;101844.47;5045605;28;1209114;-87
2022/07/16 00:29:18;;;;;;;4.07;1.00;;;;;;;14.67;100.00;101830.03;5099705;28;20504;-87
2022/07/16 00:31:47;;;;;;;5.65;1.38;;;;;;;14.74;100.00;101839.44;5082129;28;20478;-86
2022/07/16 00:34:16;;;;;;;6.20;1.27;;;;;;;14.72;100.00;101831.59;5108568;27;20093;-86
2022/07/16 00:36:44;;;;;;;3.10;1.00;;;;;;;14.39;100.00;101815.19;5087675;27;20048;-86
2022/07/16 00:39:11;;;;;;;3.30;1.17;;;;;;;14.27;100.00;101850.78;5116787;27;20078;-86
2022/07/16 00:41:39;;;;;;;4.47;1.00;;;;;;;13.90;100.00;101851.16;5098546;28;20051;-86
2022/07/16 00:44:09;;;;;;;3.97;1.30;;;;;;;13.90;100.00;101854.66;5087229;28;20123;-86
2022/07/16 00:46:38;;;;;;;2.05;1.00;;;;;;;14.07;100.00;101850.59;5107928;28;20051;-86
2022/07/16 00:49:05;;;;;;;4.45;1.20;;;;;;;14.38;100.00;101860.94;5113413;28;20043;-86
2022/07/16 00:51:34;;;;;;;4.80;1.30;;;;;;;14.47;100.00;101860.59;5095966;27;20158;-86
2022/07/16 00:54:02;;;;;;;3.95;1.30;;;;;;;14.36;100.00;101844.28;5098836;27;20053;-86
2022/07/16 00:56:28;;;;;;;5.30;1.40;;;;;;;14.41;100.00;101843.22;5114743;27;20055;-85
2022/07/16 00:58:55;;;;;;;3.22;1.10;;;;;;;14.29;100.00;101834.88;5095082;28;20043;-86
2022/07/16 01:01:23;;;;;;;4.97;1.20;;;;;;;14.35;100.00;101838.16;5095460;28;20637;-86
2022/07/16 01:03:50;;;;;;;4.15;1.13;;;;;;;14.30;100.00;101855.06;5094827;28;20408;-86
2022/07/16 01:06:17;;;;;;;4.82;1.42;;;;;;;14.22;100.00;101850.06;5085133;28;20086;-86
2022/07/16 01:08:47;;;;;;;6.22;1.67;;;;;;;14.02;100.00;101840.19;5124795;27;20130;-85
2022/07/16 01:11:16;;;;;;;5.32;1.45;;;;;;;14.08;100.00;101853.19;5094775;28;20075;-86
2022/07/16 01:13:45;;;;;;;5.80;1.55;;;;;;;13.74;100.00;101830.63;5098371;28;20047;-86
2022/07/16 01:16:13;;;;;;;4.07;1.13;;;;;;;13.97;100.00;101834.22;5089892;27;20126;-86
2022/07/16 01:18:42;;;;;;;5.47;1.48;;;;;;;14.14;100.00;101839.78;5096091;28;20817;-86
2022/07/16 01:21:11;;;;;;;5.60;1.40;;;;;;;14.17;100.00;101844.94;5077790;28;20039;-86
2022/07/16 01:23:38;;;;;;;3.22;1.20;;;;;;;14.03;100.00;101834.03;5086479;28;20044;-86
2022/07/16 01:26:05;;;;;;;6.00;1.33;;;;;;;13.79;100.00;101838.34;5109123;27;20125;-86
2022/07/16 01:28:32;;;;;;;4.40;1.30;;;;;;;13.80;100.00;101846.19;5094958;28;20405;-86
2022/07/16 01:30:59;;;;;;;5.50;1.50;;;;;;;13.73;100.00;101847.31;5109328;27;20077;-86
2022/07/16 01:33:29;;;;;;;6.35;1.38;;;;;;;13.78;100.00;101860.34;5090760;27;20370;-86
2022/07/16 01:36:03;;;;;;;5.32;1.30;;;;;;;13.69;100.00;101845.72;5087498;28;20048;-87
2022/07/16 01:38:31;;;;;;;5.85;1.38;;;;;;;13.06;100.00;101842.41;5094449;28;20526;-86
2022/07/16 01:40:58;;;;;;;4.60;1.33;;;;;;;13.19;100.00;101854.28;5095458;28;20428;-86
2022/07/16 01:43:29;;;;;;;4.50;1.20;;;;;;;13.23;100.00;101837.50;5082241;27;20057;-86
2022/07/16 01:45:58;;;;;;;5.07;1.27;;;;;;;13.22;100.00;101837.53;5110731;27;20401;-86
2022/07/16 01:48:25;;;;;;;5.47;1.45;;;;;;;13.40;100.00;101849.28;5094527;28;20044;-86
2022/07/16 01:50:54;;;;;;;3.88;1.30;;;;;;;13.57;100.00;101854.84;5085330;28;20401;-85
2022/07/16 01:53:21;;;;;;;5.53;1.20;;;;;;;13.64;100.00;101842.38;5081536;28;20490;-86
2022/07/16 01:55:48;;;;;;;6.05;1.30;;;;;;;13.54;100.00;101836.53;5094723;28;20058;-86
2022/07/16 01:58:16;;;;;;;5.43;1.35;;;;;;;13.72;100.00;101856.13;5112186;28;20401;-86
2022/07/16 02:00:45;;;;;;;4.25;1.27;;;;;;;13.50;100.00;101844.59;5114940;27;20504;-86
2022/07/16 02:03:12;;;;;;;3.05;1.02;;;;;;;13.65;100.00;101858.13;5090194;28;20058;-86
2022/07/16 02:05:40;;;;;;;3.05;1.02;;;;;;;13.56;100.00;101841.75;5121176;27;20710;-86
2022/07/16 02:08:07;;;;;;;2.88;1.10;;;;;;;13.43;100.00;101855.28;5104565;28;20050;-86
2022/07/16 02:10:35;;;;;;;5.40;1.40;;;;;;;13.30;100.00;101862.69;5090762;28;20050;-86
2022/07/16 02:13:02;;;;;;;5.97;1.45;;;;;;;13.24;100.00;101843.59;5114588;28;20053;-87
2022/07/16 02:15:30;;;;;;;6.05;1.30;;;;;;;13.19;100.00;101827.09;5094809;28;20051;-87
2022/07/16 02:17:57;;;;;;;5.00;1.10;;;;;;;13.34;100.00;101850.34;5108644;28;20051;-86
2022/07/16 02:20:26;;;;;;;5.40;1.50;;;;;;;13.22;100.00;101871.72;5091696;28;20048;-86
2022/07/16 02:22:53;;;;;;;3.10;0.98;;;;;;;13.32;100.00;101856.56;5087410;28;20058;-86
2022/07/16 02:25:20;;;;;;;5.32;1.40;;;;;;;13.11;100.00;101851.00;5112546;28;20078;-87
2022/07/16 02:30:34;;;;;;;4.13;1.60;;;;;;;13.06;100.00;101831.88;5091997;28;20596;-86
2022/07/16 02:33:00;;;;;;;4.63;1.40;;;;;;;13.35;100.00;101853.81;5085405;28;20135;-86
2022/07/16 02:35:27;;;;;;;4.80;1.33;;;;;;;13.52;100.00;101854.13;5091029;28;20047;-86
2022/07/16 02:37:54;;;;;;;4.43;1.40;;;;;;;13.66;100.00;101867.72;5100827;28;20102;-86
2022/07/16 02:40:21;;;;;;;4.47;1.38;;;;;;;13.68;100.00;101849.25;5091600;28;20044;-86
2022/07/16 02:42:47;;;;;;;6.22;1.48;;;;;;;13.82;100.00;101857.53;5090359;28;20054;-86
2022/07/16 02:45:14;;;;;;;3.88;1.25;;;;;;;13.90;100.00;101852.03;5124271;28;20051;-86
2022/07/16 02:47:41;;;;;;;4.53;1.52;;;;;;;13.87;100.00;101862.66;5110705;28;20394;-86
2022/07/16 02:50:08;;;;;;;4.32;1.40;;;;;;;13.73;100.00;101857.84;5111258;28;20120;-86
2022/07/16 02:52:35;;;;;;;4.15;1.27;;;;;;;13.50;100.00;101853.34;5079318;28;20040;-86
2022/07/16 02:55:04;;;;;;;4.82;1.40;;;;;;;13.74;100.00;101866.59;5086935;28;20495;-86
2022/07/16 02:57:31;;;;;;;5.03;1.65;;;;;;;13.79;100.00;101856.78;5092309;28;20050;-86
2022/07/16 02:59:57;;;;;;;6.30;1.83;;;;;;;13.70;100.00;101868.47;5124142;28;20073;-86
2022/07/16 03:02:24;;;;;;;4.57;1.30;;;;;;;13.32;100.00;101846.91;5086430;28;20044;-86
2022/07/16 03:04:51;;;;;;;3.80;1.30;;;;;;;13.38;100.00;101857.22;5083741;28;20104;-86
2022/07/16 03:07:17;;;;;;;4.30;1.20;;;;;;;13.56;100.00;101852.28;5094218;28;20059;-86
2022/07/16 03:09:44;;;;;;;5.35;1.77;;;;;;;13.44;100.00;101849.13;5096335;28;20121;-86
2022/07/16 03:12:11;;;;;;;3.00;1.17;;;;;;;13.22;100.00;101861.19;5097176;28;20496;-86
2022/07/16 03:14:37;;;;;;;4.63;1.40;;;;;;;13.30;100.00;101852.16;5102060;28;20059;-86
2022/07/16 03:17:04;;;;;;;3.90;1.20;;;;;;;13.26;100.00;101868.97;5095919;28;20056;-86
2022/07/16 03:19:31;;;;;;;4.85;1.13;;;;;;;13.13;100.00;101864.13;5107369;28;20151;-87
2022/07/16 03:21:58;;;;;;;3.95;1.08;;;;;;;12.86;100.00;101856.16;5087096;28;20413;-86
2022/07/16 03:24:24;;;;;;;2.40;1.17;;;;;;;12.61;100.00;101850.75;5082817;28;20056;-86
2022/07/16 03:26:51;;;;;;;3.35;1.17;;;;;;;12.73;100.00;101853.88;5097657;28;20084;-87
2022/07/16 03:29:25;;;;;;;8.25;1.20;;;;;;;12.51;100.00;101848.34;5113056;27;20047;-86
2022/07/16 03:31:52;;;;;;;3.28;1.25;;;;;;;12.90;100.00;101853.38;5096776;28;20047;-86
2022/07/16 03:34:19;;;;;;;4.22;1.20;;;;;;;13.04;100.00;101860.00;5110064;27;20053;-85
2022/07/16 03:36:45;;;;;;;3.03;1.10;;;;;;;12.86;100.00;101862.25;5111583;28;20048;-86
2022/07/16 03:39:12;;;;;;;4.10;1.00;;;;;;;13.20;100.00;101863.88;5109756;27;20481;-85
2022/07/16 03:41:39;;;;;;;3.30;1.02;;;;;;;13.48;100.00;101856.00;5116874;27;20042;-85
2022/07/16 03:44:09;;;;;;;3.60;1.30;;;;;;;13.55;100.00;101861.94;5108537;28;20047;-85
2022/07/16 03:46:37;;;;;;;3.50;1.30;;;;;;;13.63;100.00;101861.69;5088002;28;20745;-85
2022/07/16 03:49:04;;;;;;;2.35;0.90;;;;;;;13.76;100.00;101868.28;5088877;28;20072;-86
2022/07/16 03:51:32;;;;;;;3.75;1.10;;;;;;;13.89;100.00;101878.41;5109043;28;20072;-86
2022/07/16 03:53:59;;;;;;;3.45;1.02;;;;;;;13.77;100.00;101851.56;5103276;27;20047;-86
2022/07/16 03:56:25;;;;;;;3.40;1.20;;;;;;;13.53;100.00;101865.53;5091389;28;20052;-86
2022/07/16 03:58:53;;;;;;;3.70;1.17;;;;;;;13.66;100.00;101865.06;5095649;28;20060;-86
2022/07/16 04:01:20;;;;;;;2.97;1.13;;;;;;;13.38;100.00;101830.91;5084864;28;20044;-85
2022/07/16 04:03:47;;;;;;;3.75;1.33;;;;;;;13.65;100.00;101880.91;5089893;28;20070;-86
2022/07/16 04:06:14;;;;;;;6.43;1.45;;;;;;;13.55;100.00;101867.22;5103079;28;20534;-86
2022/07/16 04:08:41;;;;;;;4.90;1.30;;;;;;;13.45;100.00;101874.50;5082395;28;20069;-86
2022/07/16 04:11:08;;;;;;;1.42;0.90;;;;;;;13.45;100.00;101874.50;5095826;28;20044;-85
2022/07/16 04:13:39;;;;;;;3.72;1.00;;;;;;;13.52;100.00;101867.28;5108037;28;20047;-85
2022/07/16 04:16:07;;;;;;;2.65;1.13;;;;;;;13.42;100.00;101868.50;5082402;28;20131;-85
2022/07/16 04:18:36;;;;;;;3.55;1.30;;;;;;;13.34;100.00;101845.06;5107778;28;20044;-85
2022/07/16 04:21:05;;;;;;;3.40;1.20;;;;;;;13.51;100.00;101860.34;5089449;28;20044;-85
2022/07/16 04:23:33;;;;;;;5.78;1.35;;;;;;;13.41;100.00;101858.91;5084071;28;20063;-85
2022/07/16 04:26:00;;;;;;;4.82;1.10;;;;;;;13.27;100.00;101856.66;5097048;28;20126;-86
2022/07/16 04:28:27;;;;;;;5.07;1.40;;;;;;;12.96;100.00;101861.97;5096444;28;20408;-86
2022/07/16 04:30:54;;;;;;;2.50;1.10;;;;;;;12.98;100.00;101852.28;5113796;28;20044;-85
2022/07/16 04:33:21;;;;;;;3.13;1.30;;;;;;;13.15;100.00;101843.88;5103537;27;20047;-85
2022/07/16 04:35:48;;;;;;;3.78;1.00;;;;;;;13.27;100.00;101847.00;5104874;27;20516;-85
2022/07/16 04:38:17;;;;;;;3.88;1.35;;;;;;;13.07;100.00;101852.88;5095651;28;20047;-85
2022/07/16 04:40:43;;;;;;;3.08;0.90;;;;;;;12.90;100.00;101844.63;5095159;28;20039;-85
2022/07/16 04:43:10;;;;;;;5.53;1.48;;;;;;;13.05;100.00;101844.19;5097678;28;20400;-85
2022/07/16 04:45:37;;;;;;;2.97;1.20;;;;;;;13.07;100.00;101841.50;5095839;28;20500;-85
2022/07/16 04:48:05;;;;;;;4.25;1.50;;;;;;;12.52;100.00;101836.94;5098963;28;20054;-86
2022/07/16 04:50:32;;;;;;;5.00;1.52;;;;;;;12.64;100.00;101834.88;5093345;28;20052;-85
2022/07/16 04:52:59;;;;;;;3.63;1.30;;;;;;;12.90;100.00;101831.47;5080362;28;20052;-85
2022/07/16 04:55:26;;;;;;;2.78;1.25;;;;;;;13.20;100.00;101834.09;5079945;28;20503;-85
2022/07/16 04:57:53;;;;;;;4.40;1.48;;;;;;;13.32;100.00;101836.38;5095703;28;20408;-85
2022/07/16 05:00:24;;;;;;;2.80;1.20;;;;;;;13.23;100.00;101834.00;5099160;27;20046;-85
2022/07/16 05:02:57;;;;;;;3.03;1.00;;;;;;;13.58;100.00;101840.81;5104968;28;20062;-85
2022/07/16 05:05:30;;;;;;;5.18;1.10;;;;;;;13.77;100.00;101827.03;5097999;27;20062;-86
2022/07/16 05:07:57;;;;;;;4.45;1.40;;;;;;;13.93;100.00;101854.53;5095301;28;20063;-85
2022/07/16 05:10:24;;;;;;;4.25;1.33;;;;;;;13.91;100.00;101837.94;5074198;28;20048;-85
2022/07/16 05:12:51;;;;;;;3.80;1.20;;;;;;;13.61;100.00;101834.56;5083977;28;20078;-86
2022/07/16 05:15:19;;;;;;;2.90;1.00;;;;;;;13.37;100.00;101852.88;5094931;28;20116;-86
2022/07/16 05:17:46;;;;;;;3.40;1.25;;;;;;;13.64;100.00;101869.53;5110166;28;20052;-86
2022/07/16 05:20:15;;;;;;;4.85;1.25;;;;;;;13.64;100.00;101856.38;5095321;28;20047;-86
2022/07/16 05:22:42;;;;;;;3.63;1.20;;;;;;;13.44;100.00;101866.69;5091609;28;20042;-86
2022/07/16 05:25:10;;;;;;;5.78;1.25;;;;;;;13.48;100.00;101853.38;5083575;28;20598;-86
2022/07/16 05:27:37;;;;;;;6.25;1.38;;;;;;;13.60;100.00;101859.19;5078088;28;20044;-86
2022/07/16 05:30:06;;;;;;;2.85;1.00;;;;;;;13.59;100.00;101855.66;5112710;28;20416;-86
2022/07/16 05:32:38;;;;;;;4.07;1.30;;;;;;;13.74;100.00;101859.59;5088789;28;20520;-86
2022/07/16 05:35:06;;;;;;;5.05;1.20;;;;;;;13.52;100.00;101856.78;5084357;28;20126;-86
2022/07/16 05:37:33;;;;;;;3.05;1.20;;;;;;;13.68;100.00;101852.72;5103893;28;20178;-86
2022/07/16 05:39:59;;;;;;;3.38;1.10;;;;;;;13.66;100.00;101859.81;5092075;28;20055;-86
2022/07/16 05:42:26;;;;;;;3.95;1.30;;;;;;;13.75;100.00;101858.66;5090092;28;20489;-87
2022/07/16 05:44:53;;;;;;;3.33;1.23;;;;;;;13.70;100.00;101842.16;5105256;27;20129;-86
2022/07/16 05:47:20;;;;;;;3.72;1.20;;;;;;;14.15;100.00;101846.78;5096039;28;20054;-86
2022/07/16 05:49:47;;;;;;;2.95;1.38;;;;;;;14.30;100.00;101853.28;5101424;27;20053;-86
2022/07/16 05:52:14;;;;;;;6.32;1.45;;;;;;;14.46;100.00;101853.59;5095644;27;20046;-86
2022/07/16 05:54:41;;;;;;;5.68;1.40;;;;;;;14.20;100.00;101850.13;5099518;28;20619;-86
2022/07/16 05:57:07;;;;;;;5.07;1.38;;;;;;;14.33;100.00;101852.31;5097644;28;20055;-86
2022/07/16 05:59:34;;;;;;;3.22;1.20;;;;;;;14.73;100.00;101849.13;5103757;28;20054;-87
2022/07/16 06:02:01;;;;;;;4.13;1.20;;;;;;;14.83;100.00;101856.69;5095952;27;20046;-87
2022/07/16 06:04:28;;;;;;;9.05;1.70;;;;;;;14.63;100.00;101837.19;5101303;28;20053;-87
2022/07/16 06:06:55;;;;;;;4.38;1.35;;;;;;;14.75;100.00;101844.66;5100066;28;20048;-86
2022/07/16 06:09:22;;;;;;;4.93;1.15;;;;;;;14.84;100.00;101851.38;5097283;28;20127;-89
2022/07/16 06:11:49;;;;;;;4.00;1.48;;;;;;;14.60;100.00;101846.06;5118962;28;20050;-88
2022/07/16 06:14:16;;;;;;;3.63;1.00;;;;;;;14.75;100.00;101849.03;5088081;28;20052;-88
2022/07/16 06:16:43;;;;;;;3.63;1.30;;;;;;;14.79;100.00;101853.31;5088938;28;20055;-87
2022/07/16 06:19:10;;;;;;;4.00;1.38;;;;;;;14.89;100.00;101856.44;5109290;28;20410;-88
2022/07/16 06:21:37;;;;;;;4.18;1.50;;;;;;;15.13;100.00;101859.94;5112244;28;20040;-88
2022/07/16 06:24:04;;;;;;;4.32;1.23;;;;;;;15.73;100.00;101868.09;5074956;28;20052;-88
2022/07/16 06:26:31;;;;;;;3.28;1.00;;;;;;;15.94;100.00;101863.75;5081726;28;20051;-89
2022/07/16 06:28:57;;;;;;;5.78;1.75;;;;;;;15.89;100.00;101865.72;5093750;28;20043;-88
2022/07/16 06:31:25;;;;;;;3.58;1.30;;;;;;;16.13;100.00;101866.47;5081908;28;20122;-89
2022/07/16 06:33:52;;;;;;;4.40;1.38;;;;;;;15.97;100.00;101845.13;5086175;28;20123;-88
2022/07/16 06:36:19;;;;;;;5.10;1.35;;;;;;;15.67;100.00;101836.66;5088952;28;20601;-87
2022/07/16 06:38:47;;;;;;;4.72;1.13;;;;;;;15.95;100.00;101839.03;5105176;28;20083;-88
2022/07/16 06:41:16;;;;;;;4.38;1.02;;;;;;;15.69;100.00;101797.88;5108861;28;20075;-88
2022/07/16 06:43:43;;;;;;;4.85;1.33;;;;;;;15.99;100.00;101830.06;5083317;28;20051;-88
2022/07/16 06:46:10;;;;;;;3.63;1.00;;;;;;;16.00;100.00;101849.41;5098765;28;20058;-88
2022/07/16 06:48:37;;;;;;;4.88;1.13;;;;;;;15.83;100.00;101845.69;5104705;28;20047;-88
2022/07/16 06:51:04;;;;;;;5.30;1.20;;;;;;;15.46;100.00;101820.78;5099183;28;20104;-88
2022/07/16 06:53:31;;;;;;;6.45;1.35;;;;;;;15.80;100.00;101818.56;5113942;27;20427;-88
2022/07/16 06:56:00;;;;;;;3.22;1.13;;;;;;;16.02;100.00;101853.69;5100282;28;20054;-87
2022/07/16 06:58:27;;;;;;;3.30;1.00;;;;;;;16.92;100.00;101877.06;5111938;28;20056;-88
2022/07/16 07:00:54;;;;;;;3.95;1.20;;;;;;;16.85;100.00;101851.81;5096627;28;20492;-89
2022/07/16 07:03:21;;;;;;;7.90;1.60;;;;;;;16.49;100.00;101800.53;5087900;28;20069;-87
2022/07/16 07:05:48;;;;;;;6.53;1.33;;;;;;;17.71;100.00;101874.19;5092347;28;20048;-88
2022/07/16 07:08:15;;;;;;;4.53;1.20;;;;;;;17.84;100.00;101867.34;5108265;28;20047;-88
2022/07/16 07:10:42;;;;;;;6.95;1.70;;;;;;;17.37;100.00;101870.56;5097778;28;20047;-88
2022/07/16 07:13:09;;;;;;;4.60;1.02;;;;;;;17.86;100.00;101842.59;5089793;28;20067;-88
2022/07/16 07:15:36;;;;;;;6.10;1.60;;;;;;;18.46;100.00;101866.00;5083956;28;20044;-88
2022/07/16 07:18:03;;;;;;;4.32;1.27;;;;;;;18.82;100.00;101891.53;5095214;28;20073;-88
2022/07/16 07:20:30;;;;;;;5.03;1.17;;;;;;;18.27;100.00;101851.06;5087773;28;20409;-88
2022/07/16 07:22:56;;;;;;;6.75;1.50;;;;;;;18.04;100.00;101852.25;5100839;28;20474;-88
2022/07/16 07:25:23;;;;;;;5.55;1.20;;;;;;;18.71;100.00;101841.66;5091751;28;20055;-88
2022/07/16 07:27:50;;;;;;;3.97;1.08;;;;;;;19.28;95.43;101879.25;5097709;28;20153;-88
2022/07/16 07:30:17;;;;;;;2.85;1.00;;;;;;;19.64;92.30;101869.28;5098533;28;20057;-88
2022/07/16 07:32:44;;;;;;;4.75;1.25;;;;;;;18.45;99.91;101858.97;5100737;27;20039;-89
2022/07/16 07:35:11;;;;;;;6.05;1.10;;;;;;;18.57;100.00;101853.03;5126066;27;20071;-88
2022/07/16 07:37:38;;;;;;;6.28;1.00;;;;;;;19.09;97.96;101844.91;5083926;28;20495;-88
2022/07/16 07:40:06;;;;;;;5.97;1.30;;;;;;;19.49;91.52;101832.00;5089287;28;20127;-89
2022/07/16 07:42:32;;;;;;;5.63;1.30;;;;;;;19.26;92.25;101853.72;5077226;28;20044;-88
2022/07/16 07:44:59;;;;;;;6.28;1.33;;;;;;;19.38;93.73;101874.25;5094834;28;20078;-87
2022/07/16 07:47:28;;;;;;;3.67;1.10;;;;;;;20.08;96.99;101823.28;5092986;28;20046;-88
2022/07/16 07:49:55;;;;;;;3.75;1.00;;;;;;;20.17;88.87;101846.66;5084348;28;20390;-89
2022/07/16 07:52:22;;;;;;;5.05;1.13;;;;;;;20.64;83.73;101858.84;5090741;28;20404;-89
2022/07/16 07:54:49;;;;;;;7.30;1.42;;;;;;;20.92;82.07;101869.59;5090213;28;20049;-88
2022/07/16 07:57:16;;;;;;;8.75;1.55;;;;;;;21.60;81.24;101850.97;5095167;28;20545;-88
2022/07/16 07:59:43;;;;;;;7.65;1.30;;;;;;;21.35;79.03;101856.16;5098241;28;20043;-88
2022/07/16 08:02:09;;;;;;;5.53;1.27;;;;;;;20.63;82.61;101795.97;5083823;28;20043;-88
2022/07/16 08:04:36;;;;;;;5.72;1.13;;;;;;;21.05;78.82;101833.22;5093487;28;20054;-88
2022/07/16 08:07:04;;;;;;;3.38;0.85;;;;;;;20.31;81.79;101800.63;5082652;28;20048;-88
2022/07/16 08:09:30;;;;;;;7.05;1.20;;;;;;;19.76;89.50;101843.78;5092291;28;20385;-88
2022/07/16 08:11:57;;;;;;;7.43;1.30;;;;;;;21.39;82.58;101836.38;5089383;28;20052;-89
2022/07/16 08:14:24;;;;;;;5.90;1.33;;;;;;;20.48;85.02;101818.16;5096139;28;20061;-89
2022/07/16 08:16:55;;;;;;;6.57;1.42;;;;;;;20.56;85.18;101845.16;5096867;28;20051;-88
2022/07/16 08:19:23;;;;;;;6.47;1.33;;;;;;;20.92;87.70;101867.78;5099062;28;20076;-89
2022/07/16 08:21:50;;;;;;;6.82;1.70;;;;;;;20.59;88.84;101852.97;5085104;28;20140;-88
2022/07/16 08:27:04;;;;;;;7.10;1.40;;;;;;;21.05;87.02;101867.84;5108896;28;20052;-88
2022/07/16 08:29:31;;;;;;;3.97;1.08;;;;;;;21.32;85.94;101864.34;5113046;28;20086;-86
2022/07/16 08:31:58;;;;;;;4.22;1.30;;;;;;;21.15;85.00;101846.81;5108482;27;20049;-87
2022/07/16 08:34:25;;;;;;;5.85;1.33;;;;;;;21.31;85.47;101820.88;5097657;28;20142;-86
2022/07/16 08:36:53;;;;;;;8.27;1.33;;;;;;;21.11;84.16;101835.50;5090438;28;20503;-87
2022/07/16 08:39:20;;;;;;;8.70;1.30;;;;;;;20.88;86.16;101836.97;5082163;28;20413;-87
2022/07/16 08:41:48;;;;;;;4.65;1.10;;;;;;;21.71;79.56;101801.38;5113179;28;20041;-87
2022/07/16 08:44:15;;;;;;;4.75;1.13;;;;;;;21.09;80.52;101848.06;5096619;27;20525;-87
2022/07/16 08:46:43;;;;;;;4.32;1.02;;;;;;;21.21;83.78;101828.63;5104119;27;20044;-87
2022/07/16 08:49:09;;;;;;;3.80;1.10;;;;;;;21.78;78.71;101826.69;5096808;28;20046;-87
2022/07/16 08:51:39;;;;;;;4.57;1.30;;;;;;;21.15;82.88;101852.13;5087880;28;20549;-87
2022/07/16 08:54:20;;;;;;;7.85;1.63;;;;;;;21.04;85.57;101845.69;5080063;28;20328;-87
2022/07/16 08:56:48;;;;;;;7.20;1.52;;;;;;;20.38;86.90;101844.50;5082795;28;20131;-86
2022/07/16 08:59:15;;;;;;;7.10;1.40;;;;;;;19.60;93.24;101831.41;5094789;28;20050;-86
2022/07/16 09:01:42;;;;;;;5.05;1.17;;;;;;;19.09;98.37;101796.28;5086595;28;20044;-86
2022/07/16 09:04:09;;;;;;;4.53;1.02;;;;;;;19.67;96.02;101808.84;5084995;28;20054;-87
2022/07/16 09:06:36;;;;;;;6.45;1.42;;;;;;;19.81;94.53;101850.53;5094959;28;20143;-86
2022/07/16 09:09:03;;;;;;;6.00;1.30;;;;;;;19.03;100.00;101833.78;5090454;28;20130;-86
2022/07/16 09:11:32;;;;;;;5.93;1.63;;;;;;;18.76;100.00;101832.50;5085225;28;20474;-86
2022/07/16 09:14:05;;;;;;;6.68;1.20;;;;;;;19.98;100.00;101854.88;5081743;28;20051;-85
2022/07/16 09:16:40;;;;;;;4.35;1.25;;;;;;;19.42;100.00;101830.63;5090486;28;20452;-86
2022/07/16 09:19:16;;;;;;;4.68;1.40;;;;;;;19.65;100.00;101855.88;5080267;28;20047;-87
2022/07/16 09:22:13;;;;;;;5.20;1.35;;;;;;;19.28;100.00;101826.16;5105414;28;20123;-86
2022/07/16 09:24:52;;;;;;;10.93;1.85;;;;;;;19.33;100.00;101837.34;5086105;28;20095;-86
2022/07/16 09:27:24;;;;;;;5.80;1.33;;;;;;;19.21;100.00;101869.91;5090458;28;20074;-87
2022/07/16 09:29:52;;;;;;;7.93;1.60;;;;;;;19.44;100.00;101807.53;5094542;28;20051;-87
2022/07/16 09:32:39;;;;;;;4.45;1.15;;;;;;;19.84;100.00;101817.63;5094190;28;20118;-86
2022/07/16 09:35:13;;;;;;;4.10;1.23;;;;;;;20.39;97.61;101871.94;5090464;28;20481;-86
2022/07/16 09:37:58;;;;;;;6.20;1.27;;;;;;;20.08;98.73;101842.75;5094680;28;20101;-86
2022/07/16 09:40:35;;;;;;;4.15;1.15;;;;;;;20.00;100.00;101868.94;5087622;28;20478;-86
2022/07/16 09:43:16;;;;;;;9.85;1.35;;;;;;;19.39;100.00;101885.72;5085993;28;20128;-86
2022/07/16 09:45:45;;;;;;;4.65;1.10;;;;;;;20.28;99.58;101875.25;5103796;27;20449;-85
2022/07/16 09:48:21;;;;;;;4.25;1.10;;;;;;;19.43;100.00;101818.25;5088531;28;20039;-86
2022/07/16 09:50:49;;;;;;;7.78;1.35;;;;;;;18.84;100.00;101841.88;5077308;28;20045;-85
2022/07/16 09:53:19;;;;;;;7.05;1.40;;;;;;;18.60;100.00;101819.22;5081738;28;20387;-87
2022/07/16 09:56:05;;;;;;;9.43;1.55;;;;;;;19.43;100.00;101885.47;5092939;28;20060;-88
2022/07/16 09:58:33;;;;;;;6.65;1.50;;;;;;;19.98;100.00;101814.16;5091755;28;20553;-87
2022/07/16 10:01:01;;;;;;;4.22;1.17;;;;;;;20.26;97.79;101874.50;5083716;28;20494;-87
2022/07/16 10:03:32;;;;;;;5.13;1.20;;;;;;;20.10;98.67;101855.97;5086498;28;20401;-86
2022/07/16 10:06:00;;;;;;;7.70;1.55;;;;;;;19.35;100.00;101855.84;5092676;28;20117;-87
2022/07/16 10:08:27;;;;;;;6.55;1.65;;;;;;;19.11;100.00;101813.81;5092073;28;20058;-87
2022/07/16 10:10:54;;;;;;;6.60;1.52;;;;;;;19.35;100.00;101822.19;5072703;28;20076;-87
2022/07/16 10:13:26;;;;;;;5.90;1.50;;;;;;;20.09;100.00;101822.31;5080937;28;20048;-87
2022/07/16 10:15:54;;;;;;;10.05;1.30;;;;;;;19.93;95.80;101793.16;5091785;28;20051;-87
2022/07/16 10:18:36;;;;;;;8.10;1.60;;;;;;;19.97;100.00;101836.34;5093826;28;20059;-87
2022/07/16 10:21:12;;;;;;;6.67;1.20;;;;;;;19.84;100.00;101833.59;5096017;28;20675;-87
2022/07/16 10:23:43;;;;;;;5.32;1.17;;;;;;;20.01;100.00;101830.78;5085518;28;20098;-87
2022/07/16 10:26:18;;;;;;;6.80;1.67;;;;;;;20.43;100.00;101844.19;5094388;28;20134;-87
2022/07/16 10:28:47;;;;;;;6.55;1.52;;;;;;;19.86;100.00;101851.13;5091427;28;20813;-88
2022/07/16 10:34:41;;;;;;;3.05;1.17;;;;;;;19.52;100.00;101826.50;5098300;28;20680;-87
2022/07/16 10:37:11;;;;;;;4.15;1.20;;;;;;;20.07;100.00;101840.19;5089628;28;20457;-88
2022/07/16 10:39:57;;;;;;;6.35;1.50;;;;;;;20.15;100.00;101840.59;5094880;28;20391;-88
2022/07/16 10:42:24;;;;;;;5.05;0.98;;;;;;;20.66;100.00;101822.38;5097550;28;20051;-86
2022/07/16 10:44:51;;;;;;;4.63;1.20;;;;;;;20.63;100.00;101805.75;5094555;28;20055;-87
2022/07/16 10:47:18;;;;;;;7.05;1.63;;;;;;;20.42;100.00;101765.38;5097692;28;20051;-88
2022/07/16 10:49:45;;;;;;;4.75;1.30;;;;;;;20.54;100.00;101755.72;5095677;28;20147;-89
2022/07/16 10:52:14;;;;;;;6.10;1.30;;;;;;;20.65;100.00;101798.53;5108901;28;20068;-88
2022/07/16 10:55:00;;;;;;;4.60;1.20;;;;;;;20.80;100.00;101825.97;5096875;28;20401;-89
2022/07/16 10:57:40;;;;;;;3.90;1.38;;;;;;;20.44;100.00;101782.94;5087952;28;20490;-87
2022/07/16 11:00:08;;;;;;;7.05;1.52;;;;;;;20.61;100.00;101799.63;5099300;28;20050;-88
2022/07/16 11:02:44;;;;;;;8.00;1.40;;;;;;;20.69;100.00;101805.34;5094598;28;20044;-87
2022/07/16 11:05:31;;;;;;;4.72;1.52;;;;;;;20.61;100.00;101778.34;5094142;28;20056;-88
2022/07/16 11:08:07;;;;;;;4.88;1.90;;;;;;;20.37;100.00;101799.38;5093171;28;20109;-88
2022/07/16 11:10:35;;;;;;;5.05;1.58;;;;;;;20.05;100.00;101773.81;5081382;28;20049;-87
2022/07/16 11:13:09;;;;;;;8.48;2.25;;;;;;;19.86;100.00;101786.50;5094586;28;20123;-87
2022/07/16 11:15:36;;;;;;;8.95;2.05;;;;;;;20.45;100.00;101779.31;5096047;28;20154;-88
2022/07/16 11:18:03;;;;;;;8.23;1.92;;;;;;;20.53;100.00;101776.16;5086673;28;20429;-91
2022/07/16 11:20:35;;;;;;;4.68;1.38;;;;;;;21.14;100.00;101829.09;5099400;28;20087;-91
2022/07/16 11:23:06;;;;;;;7.38;2.03;;;;;;;21.17;100.00;101803.13;5093885;28;20044;-90
2022/07/16 11:25:33;;;;;;;5.07;1.77;;;;;;;19.49;100.00;101788.66;5098027;28;20075;-89
2022/07/16 11:28:02;;;;;;;7.43;2.00;;;;;;;19.58;100.00;101819.13;5100473;28;20107;-89
2022/07/16 11:30:29;;;;;;;8.43;2.20;;;;;;;19.41;100.00;101794.44;5100343;28;20052;-90
2022/07/16 11:32:56;;;;;;;8.95;2.40;;;;;;;19.28;100.00;101804.91;5097251;28;20048;-90
2022/07/16 11:35:24;;;;;;;9.00;2.10;;;;;;;19.95;100.00;101785.94;5098095;28;20134;-85